KLEX/LEX METAR and TAF weather

Enter ICAO airport designator
Station Type Date Time Source
KLEX METAR 2024/04/15 08:54 UTC NOAA

KLEX 150854Z 21008KT 10SM CLR 16/08 A2990 RMK AO2 SLP116 T01610078 55003


Station Type Date Time Source
KLEX Decoded METAR 2024/04/15 08:54 UTC NOAA

LEXINGTON BLUE GRASS AIRPORT, KY, United States (KLEX) 38-02N 084-36W 300M
Apr 15, 2024 - 04:54 AM EDT / 2024.04.15 0854 UTC
Wind: from the SSW (210 degrees) at 9 MPH (8 KT):0
Visibility: 10 mile(s):0
Sky conditions: clear
Temperature: 61.0 F (16.1 C)
Dew Point: 46.0 F (7.8 C)
Relative Humidity: 57%
Pressure (altimeter): 29.9 in. Hg (1012 hPa)
Pressure tendency: 0.01 inches (0.3 hPa) lower than three hours ago
ob: KLEX 150854Z 21008KT 10SM CLR 16/08 A2990 RMK AO2 SLP116 T01610078 55003
cycle: 9

Station Type Date Time Source
KLEX TAF 2024/04/15 06:57 UTC NOAA